sensor_id;sensor_type;location;lat;lon;timestamp;P1;durP1;ratioP1;P2;durP2;ratioP2
73900;SDS011;62235;52.160;7.526;2023-04-24T00:00:53;4.18;;;2.90;;
73900;SDS011;62235;52.160;7.526;2023-04-24T00:03:21;5.57;;;2.13;;
73900;SDS011;62235;52.160;7.526;2023-04-24T00:05:47;3.50;;;2.40;;
73900;SDS011;62235;52.160;7.526;2023-04-24T00:08:12;2.75;;;2.55;;
73900;SDS011;62235;52.160;7.526;2023-04-24T00:10:38;3.78;;;2.47;;
73900;SDS011;62235;52.160;7.526;2023-04-24T00:13:03;2.53;;;2.00;;
73900;SDS011;62235;52.160;7.526;2023-04-24T00:15:28;3.60;;;2.80;;
73900;SDS011;62235;52.160;7.526;2023-04-24T00:17:54;2.45;;;2.25;;
73900;SDS011;62235;52.160;7.526;2023-04-24T00:20:19;3.30;;;2.53;;
73900;SDS011;62235;52.160;7.526;2023-04-24T00:22:44;3.90;;;3.50;;
73900;SDS011;62235;52.160;7.526;2023-04-24T00:25:10;4.80;;;3.40;;
73900;SDS011;62235;52.160;7.526;2023-04-24T00:27:35;4.40;;;3.85;;
73900;SDS011;62235;52.160;7.526;2023-04-24T00:30:02;5.20;;;4.20;;
73900;SDS011;62235;52.160;7.526;2023-04-24T00:32:28;4.32;;;3.58;;
73900;SDS011;62235;52.160;7.526;2023-04-24T00:34:53;7.03;;;3.97;;
73900;SDS011;62235;52.160;7.526;2023-04-24T00:37:18;5.93;;;4.40;;
73900;SDS011;62235;52.160;7.526;2023-04-24T00:39:44;7.43;;;3.53;;
73900;SDS011;62235;52.160;7.526;2023-04-24T00:42:09;3.93;;;2.73;;
73900;SDS011;62235;52.160;7.526;2023-04-24T00:44:35;4.30;;;3.15;;
73900;SDS011;62235;52.160;7.526;2023-04-24T00:47:01;7.10;;;3.63;;
73900;SDS011;62235;52.160;7.526;2023-04-24T00:49:26;4.57;;;3.78;;
73900;SDS011;62235;52.160;7.526;2023-04-24T00:51:52;6.35;;;4.22;;
73900;SDS011;62235;52.160;7.526;2023-04-24T00:54:18;4.60;;;3.25;;
73900;SDS011;62235;52.160;7.526;2023-04-24T00:56:44;5.28;;;4.18;;
73900;SDS011;62235;52.160;7.526;2023-04-24T00:59:11;7.45;;;4.65;;
73900;SDS011;62235;52.160;7.526;2023-04-24T01:01:36;5.10;;;2.88;;
73900;SDS011;62235;52.160;7.526;2023-04-24T01:04:02;5.90;;;3.45;;
73900;SDS011;62235;52.160;7.526;2023-04-24T01:06:28;5.50;;;3.92;;
73900;SDS011;62235;52.160;7.526;2023-04-24T01:08:56;5.00;;;3.83;;
73900;SDS011;62235;52.160;7.526;2023-04-24T01:11:22;4.80;;;3.30;;
73900;SDS011;62235;52.160;7.526;2023-04-24T01:13:47;5.03;;;3.57;;
73900;SDS011;62235;52.160;7.526;2023-04-24T01:16:16;4.97;;;3.85;;
73900;SDS011;62235;52.160;7.526;2023-04-24T01:18:42;3.67;;;2.22;;
73900;SDS011;62235;52.160;7.526;2023-04-24T01:21:08;5.07;;;2.85;;
73900;SDS011;62235;52.160;7.526;2023-04-24T01:23:34;4.20;;;3.65;;
73900;SDS011;62235;52.160;7.526;2023-04-24T01:25:59;4.90;;;3.70;;
73900;SDS011;62235;52.160;7.526;2023-04-24T01:28:25;5.22;;;3.03;;
73900;SDS011;62235;52.160;7.526;2023-04-24T01:30:51;3.05;;;1.70;;
73900;SDS011;62235;52.160;7.526;2023-04-24T01:33:17;6.35;;;3.22;;
73900;SDS011;62235;52.160;7.526;2023-04-24T01:35:42;4.22;;;2.88;;
73900;SDS011;62235;52.160;7.526;2023-04-24T01:38:07;5.07;;;3.83;;
73900;SDS011;62235;52.160;7.526;2023-04-24T01:40:33;7.53;;;4.40;;
73900;SDS011;62235;52.160;7.526;2023-04-24T01:42:58;7.55;;;5.07;;
73900;SDS011;62235;52.160;7.526;2023-04-24T01:45:24;5.67;;;4.30;;
73900;SDS011;62235;52.160;7.526;2023-04-24T01:47:49;3.47;;;2.50;;
73900;SDS011;62235;52.160;7.526;2023-04-24T01:50:14;3.20;;;2.50;;
73900;SDS011;62235;52.160;7.526;2023-04-24T01:52:40;6.68;;;3.90;;
73900;SDS011;62235;52.160;7.526;2023-04-24T01:55:05;6.57;;;3.40;;
73900;SDS011;62235;52.160;7.526;2023-04-24T01:57:32;5.13;;;3.63;;
73900;SDS011;62235;52.160;7.526;2023-04-24T01:59:58;6.55;;;3.58;;
73900;SDS011;62235;52.160;7.526;2023-04-24T02:02:23;7.65;;;4.35;;
73900;SDS011;62235;52.160;7.526;2023-04-24T02:04:49;7.00;;;3.55;;
73900;SDS011;62235;52.160;7.526;2023-04-24T02:07:15;6.53;;;4.00;;
73900;SDS011;62235;52.160;7.526;2023-04-24T02:09:40;5.70;;;3.58;;
73900;SDS011;62235;52.160;7.526;2023-04-24T02:12:06;5.13;;;2.63;;
73900;SDS011;62235;52.160;7.526;2023-04-24T02:14:31;4.53;;;3.80;;
73900;SDS011;62235;52.160;7.526;2023-04-24T02:16:57;5.70;;;4.20;;
73900;SDS011;62235;52.160;7.526;2023-04-24T02:19:22;4.35;;;2.35;;
73900;SDS011;62235;52.160;7.526;2023-04-24T02:21:48;6.17;;;3.87;;
73900;SDS011;62235;52.160;7.526;2023-04-24T02:24:13;3.23;;;2.20;;
73900;SDS011;62235;52.160;7.526;2023-04-24T02:26:38;5.13;;;2.70;;
73900;SDS011;62235;52.160;7.526;2023-04-24T02:29:03;6.13;;;4.07;;
73900;SDS011;62235;52.160;7.526;2023-04-24T02:31:29;4.82;;;3.28;;
73900;SDS011;62235;52.160;7.526;2023-04-24T02:33:54;5.65;;;3.30;;
73900;SDS011;62235;52.160;7.526;2023-04-24T02:36:20;6.22;;;2.88;;
73900;SDS011;62235;52.160;7.526;2023-04-24T02:38:46;4.28;;;3.10;;
73900;SDS011;62235;52.160;7.526;2023-04-24T02:41:11;5.15;;;3.28;;
73900;SDS011;62235;52.160;7.526;2023-04-24T02:43:36;5.53;;;3.03;;
73900;SDS011;62235;52.160;7.526;2023-04-24T02:46:01;7.10;;;2.97;;
73900;SDS011;62235;52.160;7.526;2023-04-24T02:48:27;4.32;;;2.80;;
73900;SDS011;62235;52.160;7.526;2023-04-24T02:50:53;5.60;;;3.25;;
73900;SDS011;62235;52.160;7.526;2023-04-24T02:53:18;4.13;;;3.00;;
73900;SDS011;62235;52.160;7.526;2023-04-24T02:55:43;4.55;;;3.42;;
73900;SDS011;62235;52.160;7.526;2023-04-24T02:58:09;5.28;;;3.50;;
73900;SDS011;62235;52.160;7.526;2023-04-24T03:00:37;6.30;;;4.38;;
73900;SDS011;62235;52.160;7.526;2023-04-24T03:03:03;5.32;;;2.88;;
73900;SDS011;62235;52.160;7.526;2023-04-24T03:05:28;5.80;;;3.92;;
73900;SDS011;62235;52.160;7.526;2023-04-24T03:07:53;3.90;;;3.23;;
73900;SDS011;62235;52.160;7.526;2023-04-24T03:10:19;8.02;;;5.13;;
73900;SDS011;62235;52.160;7.526;2023-04-24T03:12:44;6.50;;;5.00;;
73900;SDS011;62235;52.160;7.526;2023-04-24T03:15:10;5.47;;;3.58;;
73900;SDS011;62235;52.160;7.526;2023-04-24T03:17:35;8.18;;;5.43;;
73900;SDS011;62235;52.160;7.526;2023-04-24T03:20:01;7.50;;;5.95;;
73900;SDS011;62235;52.160;7.526;2023-04-24T03:22:27;7.28;;;4.40;;
73900;SDS011;62235;52.160;7.526;2023-04-24T03:24:53;7.30;;;5.07;;
73900;SDS011;62235;52.160;7.526;2023-04-24T03:27:19;5.60;;;3.88;;
73900;SDS011;62235;52.160;7.526;2023-04-24T03:29:45;7.37;;;5.00;;
73900;SDS011;62235;52.160;7.526;2023-04-24T03:32:10;9.15;;;6.30;;
73900;SDS011;62235;52.160;7.526;2023-04-24T03:34:35;7.47;;;5.30;;
73900;SDS011;62235;52.160;7.526;2023-04-24T03:37:01;11.02;;;7.68;;
73900;SDS011;62235;52.160;7.526;2023-04-24T03:39:26;9.50;;;7.20;;
73900;SDS011;62235;52.160;7.526;2023-04-24T03:41:52;8.73;;;6.40;;
73900;SDS011;62235;52.160;7.526;2023-04-24T03:44:17;10.33;;;7.00;;
73900;SDS011;62235;52.160;7.526;2023-04-24T03:46:42;9.23;;;6.43;;
73900;SDS011;62235;52.160;7.526;2023-04-24T03:49:08;9.87;;;5.17;;
73900;SDS011;62235;52.160;7.526;2023-04-24T03:51:33;11.07;;;7.83;;
73900;SDS011;62235;52.160;7.526;2023-04-24T03:53:58;10.88;;;7.43;;
73900;SDS011;62235;52.160;7.526;2023-04-24T03:56:24;15.90;;;9.38;;
73900;SDS011;62235;52.160;7.526;2023-04-24T03:58:49;13.90;;;8.17;;
73900;SDS011;62235;52.160;7.526;2023-04-24T04:01:14;12.38;;;8.38;;
73900;SDS011;62235;52.160;7.526;2023-04-24T04:03:41;12.90;;;8.23;;
73900;SDS011;62235;52.160;7.526;2023-04-24T04:06:06;14.18;;;7.82;;
73900;SDS011;62235;52.160;7.526;2023-04-24T04:08:31;14.00;;;8.30;;
73900;SDS011;62235;52.160;7.526;2023-04-24T04:10:57;17.30;;;11.20;;
73900;SDS011;62235;52.160;7.526;2023-04-24T04:13:22;15.20;;;9.57;;
73900;SDS011;62235;52.160;7.526;2023-04-24T04:15:47;15.50;;;8.70;;
73900;SDS011;62235;52.160;7.526;2023-04-24T04:18:13;19.50;;;11.07;;
73900;SDS011;62235;52.160;7.526;2023-04-24T04:20:38;19.50;;;10.63;;
73900;SDS011;62235;52.160;7.526;2023-04-24T04:23:03;18.45;;;14.40;;
73900;SDS011;62235;52.160;7.526;2023-04-24T04:25:28;15.67;;;9.17;;
73900;SDS011;62235;52.160;7.526;2023-04-24T04:27:54;16.92;;;11.40;;
73900;SDS011;62235;52.160;7.526;2023-04-24T04:30:20;15.63;;;10.18;;
73900;SDS011;62235;52.160;7.526;2023-04-24T04:32:45;13.38;;;7.82;;
73900;SDS011;62235;52.160;7.526;2023-04-24T04:35:11;12.93;;;6.63;;
73900;SDS011;62235;52.160;7.526;2023-04-24T04:37:36;17.53;;;10.73;;
73900;SDS011;62235;52.160;7.526;2023-04-24T04:40:03;16.42;;;10.85;;
73900;SDS011;62235;52.160;7.526;2023-04-24T04:42:31;15.90;;;9.88;;
73900;SDS011;62235;52.160;7.526;2023-04-24T04:44:57;18.25;;;11.98;;
73900;SDS011;62235;52.160;7.526;2023-04-24T04:47:23;16.98;;;10.98;;
73900;SDS011;62235;52.160;7.526;2023-04-24T04:49:48;17.33;;;11.88;;
73900;SDS011;62235;52.160;7.526;2023-04-24T04:52:13;15.27;;;8.20;;
73900;SDS011;62235;52.160;7.526;2023-04-24T04:54:39;10.88;;;6.20;;
73900;SDS011;62235;52.160;7.526;2023-04-24T04:57:05;15.00;;;9.60;;
73900;SDS011;62235;52.160;7.526;2023-04-24T04:59:31;13.73;;;8.07;;
73900;SDS011;62235;52.160;7.526;2023-04-24T05:01:56;15.07;;;10.07;;
73900;SDS011;62235;52.160;7.526;2023-04-24T05:04:22;17.10;;;10.50;;
73900;SDS011;62235;52.160;7.526;2023-04-24T05:06:47;16.53;;;8.87;;
73900;SDS011;62235;52.160;7.526;2023-04-24T05:09:12;21.63;;;11.03;;
73900;SDS011;62235;52.160;7.526;2023-04-24T05:11:37;18.65;;;12.05;;
73900;SDS011;62235;52.160;7.526;2023-04-24T05:14:03;16.90;;;10.57;;
73900;SDS011;62235;52.160;7.526;2023-04-24T05:16:28;18.25;;;12.75;;
73900;SDS011;62235;52.160;7.526;2023-04-24T05:18:54;16.95;;;10.45;;
73900;SDS011;62235;52.160;7.526;2023-04-24T05:21:19;19.38;;;12.55;;
73900;SDS011;62235;52.160;7.526;2023-04-24T05:23:45;19.85;;;13.45;;
73900;SDS011;62235;52.160;7.526;2023-04-24T05:26:10;20.75;;;13.77;;
73900;SDS011;62235;52.160;7.526;2023-04-24T05:28:35;24.05;;;16.50;;
73900;SDS011;62235;52.160;7.526;2023-04-24T05:31:01;20.90;;;14.15;;
73900;SDS011;62235;52.160;7.526;2023-04-24T05:33:27;23.30;;;14.82;;
73900;SDS011;62235;52.160;7.526;2023-04-24T05:35:53;22.52;;;13.55;;
73900;SDS011;62235;52.160;7.526;2023-04-24T05:38:19;20.48;;;15.40;;
73900;SDS011;62235;52.160;7.526;2023-04-24T05:40:45;22.60;;;10.60;;
73900;SDS011;62235;52.160;7.526;2023-04-24T05:43:10;23.67;;;13.25;;
73900;SDS011;62235;52.160;7.526;2023-04-24T05:45:36;22.27;;;13.27;;
73900;SDS011;62235;52.160;7.526;2023-04-24T05:48:02;24.23;;;12.02;;
73900;SDS011;62235;52.160;7.526;2023-04-24T05:50:27;18.00;;;9.98;;
73900;SDS011;62235;52.160;7.526;2023-04-24T05:52:53;22.47;;;13.53;;
73900;SDS011;62235;52.160;7.526;2023-04-24T05:55:18;20.50;;;13.43;;
73900;SDS011;62235;52.160;7.526;2023-04-24T05:57:44;21.40;;;13.88;;
73900;SDS011;62235;52.160;7.526;2023-04-24T06:00:09;20.43;;;11.93;;
73900;SDS011;62235;52.160;7.526;2023-04-24T06:02:38;23.15;;;12.45;;
73900;SDS011;62235;52.160;7.526;2023-04-24T06:05:03;19.92;;;12.95;;
73900;SDS011;62235;52.160;7.526;2023-04-24T06:07:29;17.25;;;10.32;;
73900;SDS011;62235;52.160;7.526;2023-04-24T06:09:55;17.48;;;10.98;;
73900;SDS011;62235;52.160;7.526;2023-04-24T06:12:21;17.88;;;10.27;;
73900;SDS011;62235;52.160;7.526;2023-04-24T06:14:47;18.00;;;11.82;;
73900;SDS011;62235;52.160;7.526;2023-04-24T06:17:12;17.60;;;8.43;;
73900;SDS011;62235;52.160;7.526;2023-04-24T06:19:37;18.93;;;9.47;;
73900;SDS011;62235;52.160;7.526;2023-04-24T06:22:02;19.80;;;10.93;;
73900;SDS011;62235;52.160;7.526;2023-04-24T06:24:28;19.00;;;10.35;;
73900;SDS011;62235;52.160;7.526;2023-04-24T06:26:53;20.05;;;10.07;;
73900;SDS011;62235;52.160;7.526;2023-04-24T06:29:19;14.98;;;11.02;;
73900;SDS011;62235;52.160;7.526;2023-04-24T06:31:44;16.02;;;10.38;;
73900;SDS011;62235;52.160;7.526;2023-04-24T06:34:10;14.47;;;10.67;;
73900;SDS011;62235;52.160;7.526;2023-04-24T06:36:35;17.23;;;11.47;;
73900;SDS011;62235;52.160;7.526;2023-04-24T06:39:00;14.93;;;9.95;;
73900;SDS011;62235;52.160;7.526;2023-04-24T06:41:26;13.25;;;7.85;;
73900;SDS011;62235;52.160;7.526;2023-04-24T06:43:52;15.80;;;9.30;;
73900;SDS011;62235;52.160;7.526;2023-04-24T06:46:17;15.00;;;8.93;;
73900;SDS011;62235;52.160;7.526;2023-04-24T06:48:43;43.67;;;10.70;;
73900;SDS011;62235;52.160;7.526;2023-04-24T06:51:08;15.35;;;10.40;;
73900;SDS011;62235;52.160;7.526;2023-04-24T06:53:34;13.65;;;9.75;;
73900;SDS011;62235;52.160;7.526;2023-04-24T06:55:59;11.50;;;7.88;;
73900;SDS011;62235;52.160;7.526;2023-04-24T06:58:25;14.15;;;9.63;;
73900;SDS011;62235;52.160;7.526;2023-04-24T07:00:50;15.02;;;9.90;;
73900;SDS011;62235;52.160;7.526;2023-04-24T07:03:16;16.33;;;10.70;;
73900;SDS011;62235;52.160;7.526;2023-04-24T07:05:41;13.70;;;10.93;;
73900;SDS011;62235;52.160;7.526;2023-04-24T07:08:07;14.43;;;9.68;;
73900;SDS011;62235;52.160;7.526;2023-04-24T07:10:33;14.57;;;10.65;;
73900;SDS011;62235;52.160;7.526;2023-04-24T07:13:00;13.75;;;6.57;;
73900;SDS011;62235;52.160;7.526;2023-04-24T07:15:26;13.20;;;9.07;;
73900;SDS011;62235;52.160;7.526;2023-04-24T07:17:51;13.40;;;7.82;;
73900;SDS011;62235;52.160;7.526;2023-04-24T07:20:17;11.32;;;7.43;;
73900;SDS011;62235;52.160;7.526;2023-04-24T07:22:42;12.02;;;8.52;;
73900;SDS011;62235;52.160;7.526;2023-04-24T07:25:08;9.60;;;6.13;;
73900;SDS011;62235;52.160;7.526;2023-04-24T07:27:33;8.80;;;6.07;;
73900;SDS011;62235;52.160;7.526;2023-04-24T07:29:59;10.45;;;6.55;;
73900;SDS011;62235;52.160;7.526;2023-04-24T07:32:25;8.57;;;5.45;;
73900;SDS011;62235;52.160;7.526;2023-04-24T07:34:50;10.23;;;7.10;;
73900;SDS011;62235;52.160;7.526;2023-04-24T07:37:16;8.30;;;6.07;;
73900;SDS011;62235;52.160;7.526;2023-04-24T07:39:41;6.72;;;4.05;;
73900;SDS011;62235;52.160;7.526;2023-04-24T07:42:07;8.68;;;6.32;;
73900;SDS011;62235;52.160;7.526;2023-04-24T07:44:32;8.65;;;7.25;;
73900;SDS011;62235;52.160;7.526;2023-04-24T07:46:57;7.87;;;4.87;;
73900;SDS011;62235;52.160;7.526;2023-04-24T07:49:23;7.97;;;4.83;;
73900;SDS011;62235;52.160;7.526;2023-04-24T07:51:48;6.57;;;3.60;;
73900;SDS011;62235;52.160;7.526;2023-04-24T07:54:14;8.25;;;5.28;;
73900;SDS011;62235;52.160;7.526;2023-04-24T07:56:40;8.35;;;5.57;;
73900;SDS011;62235;52.160;7.526;2023-04-24T07:59:07;7.20;;;5.93;;
73900;SDS011;62235;52.160;7.526;2023-04-24T08:01:34;8.23;;;5.43;;
73900;SDS011;62235;52.160;7.526;2023-04-24T08:04:00;6.78;;;5.20;;
73900;SDS011;62235;52.160;7.526;2023-04-24T08:06:25;8.85;;;6.93;;
73900;SDS011;62235;52.160;7.526;2023-04-24T08:08:55;11.02;;;9.05;;
73900;SDS011;62235;52.160;7.526;2023-04-24T08:11:20;11.55;;;8.40;;
73900;SDS011;62235;52.160;7.526;2023-04-24T08:13:45;11.57;;;8.23;;
73900;SDS011;62235;52.160;7.526;2023-04-24T08:16:11;9.37;;;6.87;;
73900;SDS011;62235;52.160;7.526;2023-04-24T08:18:36;11.65;;;9.07;;
73900;SDS011;62235;52.160;7.526;2023-04-24T08:21:01;12.67;;;9.73;;
73900;SDS011;62235;52.160;7.526;2023-04-24T08:23:27;10.27;;;7.88;;
73900;SDS011;62235;52.160;7.526;2023-04-24T08:25:54;11.80;;;9.05;;
73900;SDS011;62235;52.160;7.526;2023-04-24T08:28:19;10.30;;;7.68;;
73900;SDS011;62235;52.160;7.526;2023-04-24T08:30:45;10.88;;;8.80;;
73900;SDS011;62235;52.160;7.526;2023-04-24T08:33:12;8.98;;;7.20;;
73900;SDS011;62235;52.160;7.526;2023-04-24T08:35:38;8.18;;;7.03;;
73900;SDS011;62235;52.160;7.526;2023-04-24T08:38:04;9.02;;;7.57;;
73900;SDS011;62235;52.160;7.526;2023-04-24T08:40:29;9.93;;;8.50;;
73900;SDS011;62235;52.160;7.526;2023-04-24T08:42:59;10.38;;;7.88;;
73900;SDS011;62235;52.160;7.526;2023-04-24T08:45:25;9.85;;;8.75;;
73900;SDS011;62235;52.160;7.526;2023-04-24T08:47:51;10.60;;;7.65;;
73900;SDS011;62235;52.160;7.526;2023-04-24T08:50:18;9.57;;;6.43;;
73900;SDS011;62235;52.160;7.526;2023-04-24T08:52:43;10.10;;;7.50;;
73900;SDS011;62235;52.160;7.526;2023-04-24T08:55:09;12.77;;;9.83;;
73900;SDS011;62235;52.160;7.526;2023-04-24T08:57:34;5.03;;;3.72;;
73900;SDS011;62235;52.160;7.526;2023-04-24T09:00:01;5.47;;;4.25;;
73900;SDS011;62235;52.160;7.526;2023-04-24T09:02:26;8.30;;;6.68;;
73900;SDS011;62235;52.160;7.526;2023-04-24T09:04:52;7.25;;;5.30;;
73900;SDS011;62235;52.160;7.526;2023-04-24T09:07:19;6.63;;;4.18;;
73900;SDS011;62235;52.160;7.526;2023-04-24T09:09:44;6.18;;;3.78;;
73900;SDS011;62235;52.160;7.526;2023-04-24T09:12:10;5.78;;;3.55;;
73900;SDS011;62235;52.160;7.526;2023-04-24T09:14:36;4.70;;;2.78;;
73900;SDS011;62235;52.160;7.526;2023-04-24T09:17:04;5.65;;;3.47;;
73900;SDS011;62235;52.160;7.526;2023-04-24T09:19:31;3.28;;;1.77;;
73900;SDS011;62235;52.160;7.526;2023-04-24T09:21:56;8.18;;;3.58;;
73900;SDS011;62235;52.160;7.526;2023-04-24T09:24:22;4.73;;;2.37;;
73900;SDS011;62235;52.160;7.526;2023-04-24T09:26:47;3.28;;;2.28;;
73900;SDS011;62235;52.160;7.526;2023-04-24T09:29:14;4.65;;;2.10;;
73900;SDS011;62235;52.160;7.526;2023-04-24T09:31:40;6.55;;;3.30;;
73900;SDS011;62235;52.160;7.526;2023-04-24T09:34:06;5.47;;;3.30;;
73900;SDS011;62235;52.160;7.526;2023-04-24T09:39:02;4.18;;;2.60;;
73900;SDS011;62235;52.160;7.526;2023-04-24T09:41:31;6.40;;;3.20;;
73900;SDS011;62235;52.160;7.526;2023-04-24T09:43:57;5.18;;;2.38;;
73900;SDS011;62235;52.160;7.526;2023-04-24T09:46:35;4.13;;;1.77;;
73900;SDS011;62235;52.160;7.526;2023-04-24T09:49:07;4.90;;;3.22;;
73900;SDS011;62235;52.160;7.526;2023-04-24T09:51:35;5.40;;;3.15;;
73900;SDS011;62235;52.160;7.526;2023-04-24T09:54:04;5.40;;;3.25;;
73900;SDS011;62235;52.160;7.526;2023-04-24T09:56:34;4.68;;;3.03;;
73900;SDS011;62235;52.160;7.526;2023-04-24T09:59:06;5.05;;;2.70;;
73900;SDS011;62235;52.160;7.526;2023-04-24T10:01:31;2.83;;;2.00;;
73900;SDS011;62235;52.160;7.526;2023-04-24T10:03:57;3.28;;;1.92;;
73900;SDS011;62235;52.160;7.526;2023-04-24T10:06:22;6.20;;;1.80;;
73900;SDS011;62235;52.160;7.526;2023-04-24T10:08:56;4.40;;;1.80;;
73900;SDS011;62235;52.160;7.526;2023-04-24T10:11:23;4.13;;;2.30;;
73900;SDS011;62235;52.160;7.526;2023-04-24T10:13:49;3.85;;;2.63;;
73900;SDS011;62235;52.160;7.526;2023-04-24T10:16:15;3.97;;;2.25;;
73900;SDS011;62235;52.160;7.526;2023-04-24T10:18:40;4.22;;;2.58;;
73900;SDS011;62235;52.160;7.526;2023-04-24T10:21:07;4.40;;;2.88;;
73900;SDS011;62235;52.160;7.526;2023-04-24T10:23:32;5.47;;;3.38;;
73900;SDS011;62235;52.160;7.526;2023-04-24T10:25:57;7.53;;;3.45;;
73900;SDS011;62235;52.160;7.526;2023-04-24T10:28:24;5.80;;;3.45;;
73900;SDS011;62235;52.160;7.526;2023-04-24T10:30:49;5.75;;;3.88;;
73900;SDS011;62235;52.160;7.526;2023-04-24T10:33:16;7.22;;;4.15;;
73900;SDS011;62235;52.160;7.526;2023-04-24T10:35:43;4.00;;;2.55;;
73900;SDS011;62235;52.160;7.526;2023-04-24T10:38:14;5.10;;;2.10;;
73900;SDS011;62235;52.160;7.526;2023-04-24T10:40:42;5.25;;;2.90;;
73900;SDS011;62235;52.160;7.526;2023-04-24T10:43:08;5.80;;;3.22;;
73900;SDS011;62235;52.160;7.526;2023-04-24T10:45:37;5.63;;;3.13;;
73900;SDS011;62235;52.160;7.526;2023-04-24T10:48:07;8.88;;;4.13;;
73900;SDS011;62235;52.160;7.526;2023-04-24T10:50:45;6.68;;;1.95;;
73900;SDS011;62235;52.160;7.526;2023-04-24T10:53:13;5.85;;;3.80;;
73900;SDS011;62235;52.160;7.526;2023-04-24T10:55:51;7.90;;;3.70;;
73900;SDS011;62235;52.160;7.526;2023-04-24T10:58:51;5.75;;;3.22;;
73900;SDS011;62235;52.160;7.526;2023-04-24T11:01:25;9.90;;;5.20;;
73900;SDS011;62235;52.160;7.526;2023-04-24T11:04:02;6.20;;;3.60;;
73900;SDS011;62235;52.160;7.526;2023-04-24T11:06:35;10.50;;;5.80;;
73900;SDS011;62235;52.160;7.526;2023-04-24T11:09:10;5.13;;;2.15;;
73900;SDS011;62235;52.160;7.526;2023-04-24T11:11:38;4.70;;;2.78;;
73900;SDS011;62235;52.160;7.526;2023-04-24T11:14:09;8.73;;;3.67;;
73900;SDS011;62235;52.160;7.526;2023-04-24T11:16:42;7.85;;;4.25;;
73900;SDS011;62235;52.160;7.526;2023-04-24T11:19:20;9.35;;;2.72;;
73900;SDS011;62235;52.160;7.526;2023-04-24T11:21:57;5.45;;;2.85;;
73900;SDS011;62235;52.160;7.526;2023-04-24T11:27:05;8.48;;;4.50;;
73900;SDS011;62235;52.160;7.526;2023-04-24T11:29:39;5.28;;;2.95;;
73900;SDS011;62235;52.160;7.526;2023-04-24T11:34:48;6.18;;;3.03;;
73900;SDS011;62235;52.160;7.526;2023-04-24T11:37:15;7.88;;;4.00;;
73900;SDS011;62235;52.160;7.526;2023-04-24T11:39:40;9.55;;;5.32;;
73900;SDS011;62235;52.160;7.526;2023-04-24T11:42:06;5.13;;;2.63;;
73900;SDS011;62235;52.160;7.526;2023-04-24T11:44:33;4.82;;;2.80;;
73900;SDS011;62235;52.160;7.526;2023-04-24T11:46:58;6.30;;;3.38;;
73900;SDS011;62235;52.160;7.526;2023-04-24T11:49:24;4.35;;;2.13;;
73900;SDS011;62235;52.160;7.526;2023-04-24T11:51:50;7.43;;;2.72;;
73900;SDS011;62235;52.160;7.526;2023-04-24T11:54:15;5.93;;;2.92;;
73900;SDS011;62235;52.160;7.526;2023-04-24T11:56:44;7.05;;;1.75;;
73900;SDS011;62235;52.160;7.526;2023-04-24T11:59:11;4.00;;;2.10;;
73900;SDS011;62235;52.160;7.526;2023-04-24T12:01:43;4.90;;;2.10;;
73900;SDS011;62235;52.160;7.526;2023-04-24T12:06:37;5.07;;;2.72;;
73900;SDS011;62235;52.160;7.526;2023-04-24T12:09:03;3.22;;;1.67;;
73900;SDS011;62235;52.160;7.526;2023-04-24T12:11:29;2.38;;;1.80;;
73900;SDS011;62235;52.160;7.526;2023-04-24T12:13:54;6.20;;;2.13;;
73900;SDS011;62235;52.160;7.526;2023-04-24T12:16:19;3.08;;;1.52;;
73900;SDS011;62235;52.160;7.526;2023-04-24T12:18:45;7.80;;;1.92;;
73900;SDS011;62235;52.160;7.526;2023-04-24T12:21:14;3.45;;;1.73;;
73900;SDS011;62235;52.160;7.526;2023-04-24T12:23:42;8.82;;;1.63;;
73900;SDS011;62235;52.160;7.526;2023-04-24T12:26:09;7.05;;;3.13;;
73900;SDS011;62235;52.160;7.526;2023-04-24T12:28:35;2.27;;;0.87;;
73900;SDS011;62235;52.160;7.526;2023-04-24T12:31:01;11.15;;;2.88;;
73900;SDS011;62235;52.160;7.526;2023-04-24T12:33:26;3.35;;;1.77;;
73900;SDS011;62235;52.160;7.526;2023-04-24T12:35:52;4.63;;;1.60;;
73900;SDS011;62235;52.160;7.526;2023-04-24T12:38:25;6.53;;;2.70;;
73900;SDS011;62235;52.160;7.526;2023-04-24T12:41:04;3.58;;;1.60;;
73900;SDS011;62235;52.160;7.526;2023-04-24T12:43:30;4.18;;;1.65;;
73900;SDS011;62235;52.160;7.526;2023-04-24T12:45:55;3.25;;;1.85;;
73900;SDS011;62235;52.160;7.526;2023-04-24T12:48:21;6.95;;;2.90;;
73900;SDS011;62235;52.160;7.526;2023-04-24T12:50:47;8.23;;;1.65;;
73900;SDS011;62235;52.160;7.526;2023-04-24T12:53:12;6.75;;;2.05;;
73900;SDS011;62235;52.160;7.526;2023-04-24T12:55:38;4.97;;;2.03;;
73900;SDS011;62235;52.160;7.526;2023-04-24T12:58:03;9.30;;;2.10;;
73900;SDS011;62235;52.160;7.526;2023-04-24T13:00:29;2.97;;;1.83;;
73900;SDS011;62235;52.160;7.526;2023-04-24T13:02:54;7.13;;;1.88;;
73900;SDS011;62235;52.160;7.526;2023-04-24T13:05:20;3.80;;;1.73;;
73900;SDS011;62235;52.160;7.526;2023-04-24T13:07:45;2.90;;;1.43;;
73900;SDS011;62235;52.160;7.526;2023-04-24T13:10:10;4.00;;;1.80;;
73900;SDS011;62235;52.160;7.526;2023-04-24T13:12:36;7.38;;;3.13;;
73900;SDS011;62235;52.160;7.526;2023-04-24T13:15:02;5.35;;;2.20;;
73900;SDS011;62235;52.160;7.526;2023-04-24T13:17:28;2.00;;;1.23;;
73900;SDS011;62235;52.160;7.526;2023-04-24T13:19:54;3.93;;;1.73;;
73900;SDS011;62235;52.160;7.526;2023-04-24T13:22:19;4.60;;;1.73;;
73900;SDS011;62235;52.160;7.526;2023-04-24T13:24:45;4.18;;;1.90;;
73900;SDS011;62235;52.160;7.526;2023-04-24T13:27:13;2.00;;;0.93;;
73900;SDS011;62235;52.160;7.526;2023-04-24T13:29:38;3.38;;;1.75;;
73900;SDS011;62235;52.160;7.526;2023-04-24T13:32:04;6.10;;;1.93;;
73900;SDS011;62235;52.160;7.526;2023-04-24T13:34:29;6.05;;;1.80;;
73900;SDS011;62235;52.160;7.526;2023-04-24T13:36:55;4.53;;;2.08;;
73900;SDS011;62235;52.160;7.526;2023-04-24T13:39:21;4.07;;;2.25;;
73900;SDS011;62235;52.160;7.526;2023-04-24T13:41:47;2.97;;;1.95;;
73900;SDS011;62235;52.160;7.526;2023-04-24T13:44:13;4.75;;;2.55;;
73900;SDS011;62235;52.160;7.526;2023-04-24T13:46:39;2.58;;;1.80;;
73900;SDS011;62235;52.160;7.526;2023-04-24T13:49:04;8.03;;;3.40;;
73900;SDS011;62235;52.160;7.526;2023-04-24T13:51:30;5.90;;;2.30;;
73900;SDS011;62235;52.160;7.526;2023-04-24T13:53:55;5.47;;;2.07;;
73900;SDS011;62235;52.160;7.526;2023-04-24T13:56:21;6.53;;;2.45;;
73900;SDS011;62235;52.160;7.526;2023-04-24T13:58:47;5.20;;;1.83;;
73900;SDS011;62235;52.160;7.526;2023-04-24T14:01:12;6.38;;;2.58;;
73900;SDS011;62235;52.160;7.526;2023-04-24T14:03:38;2.22;;;1.00;;
73900;SDS011;62235;52.160;7.526;2023-04-24T14:06:03;5.40;;;1.73;;
73900;SDS011;62235;52.160;7.526;2023-04-24T14:08:29;4.80;;;2.15;;
73900;SDS011;62235;52.160;7.526;2023-04-24T14:10:54;4.20;;;1.30;;
73900;SDS011;62235;52.160;7.526;2023-04-24T14:13:19;5.25;;;1.92;;
73900;SDS011;62235;52.160;7.526;2023-04-24T14:15:45;5.72;;;1.33;;
73900;SDS011;62235;52.160;7.526;2023-04-24T14:18:10;4.40;;;1.48;;
73900;SDS011;62235;52.160;7.526;2023-04-24T14:20:36;4.35;;;1.88;;
73900;SDS011;62235;52.160;7.526;2023-04-24T14:23:01;3.22;;;1.10;;
73900;SDS011;62235;52.160;7.526;2023-04-24T14:25:26;2.50;;;1.33;;
73900;SDS011;62235;52.160;7.526;2023-04-24T14:27:52;2.83;;;1.50;;
73900;SDS011;62235;52.160;7.526;2023-04-24T14:30:18;2.30;;;1.08;;
73900;SDS011;62235;52.160;7.526;2023-04-24T14:32:43;2.38;;;1.10;;
73900;SDS011;62235;52.160;7.526;2023-04-24T14:35:09;2.03;;;1.05;;
73900;SDS011;62235;52.160;7.526;2023-04-24T14:37:34;3.10;;;1.42;;
73900;SDS011;62235;52.160;7.526;2023-04-24T14:40:01;2.70;;;1.48;;
73900;SDS011;62235;52.160;7.526;2023-04-24T14:42:26;2.08;;;1.15;;
73900;SDS011;62235;52.160;7.526;2023-04-24T14:44:53;1.77;;;0.98;;